x

North Hecate Strait (46183) Wave Buoy

8:00am - Fri 29th Jul 2016 All times are PDT. -7 hours from GMT.

  • Sig Wave height 2.3ft
  • Peak Period 4s
  • Wind
    18mph, 20mph gusts
  • Air Temp 58°f
  • Sea Pressure 1023.6mb
  • North Hecate Strait
  • North Hecate Strait

More Historic Weather Station data

Upgrade to MSW Pro to gain access to the past 30 days of data for over 8000 Wavebouys and Weather Stations around the globe.

Join Pro

Comparision Forecast

View Surf forecast
   
Fri 07/29 8:00am 2.5ft 4s 18 20 mph 1023.6mb 58f
7:00am 2.5ft 4s 18 20 mph 1023.7mb 58f
6:00am 2.5ft 4s 18 20 mph 1023.9mb 58f
5:00am 2.5ft 4s 18 22 mph 1023.9mb 58f
4:00am 2.5ft 4s 16 18 mph 1024.2mb 59f
3:00am 2.5ft 4s 18 20 mph 1024.4mb 58f
2:00am 2.5ft 4s 18 22 mph 1024.4mb 58f
1:00am 2.5ft 4s 18 22 mph 1024.2mb 58f
12:00am  -   -  16
mph
1024.2mb 58f
Thu 07/28 11:00pm 2.5ft 4s 18 20 mph 1023.9mb 58f
9:00pm 2.5ft 4s 20 22 mph 1023.4mb 59f
8:00pm 1.6ft 4s 18 22 mph 1023.5mb 59f
7:00pm 1.3ft 3s 16 18 mph 1023.6mb 59f
6:00pm 1ft 7s 13 18 mph 1024.1mb 60f
5:00pm 0.7ft 6s 11 13 mph 1024.2mb 61f
4:00pm 1ft 3s 2 4 mph 1024.5mb 64f
3:00pm 1ft 4s 4
mph
1024.6mb 63f
2:00pm 1ft 3s 4
mph
1024.7mb 62f
1:00pm 1ft 3s 4
mph
1024.7mb 62f
12:00pm 1ft 4s 4 7 mph 1024.6mb 61f
11:00am 1ft 13s 4 7 mph 1024.2mb 61f
10:00am 0.7ft 6s 7 9 mph 1023.9mb 60f
9:00am 0.7ft 14s 7 9 mph 1023.9mb 60f
8:00am 0.7ft 14s 7
mph
1023.8mb 60f
7:00am 0.7ft 14s 7
mph
1023.6mb 60f
6:00am 0.7ft 13s 7 9 mph 1023.5mb 60f
5:00am 0.7ft 3s 7 9 mph 1023.7mb 60f
4:00am 0.7ft 14s 4 7 mph 1023.6mb 60f
3:00am 0.7ft 15s 4 7 mph 1023.8mb 60f
2:00am 0.7ft 14s 7
mph
1023.8mb 60f
1:00am 0.7ft 15s 4 7 mph 1023.9mb 60f
12:00am 0.7ft 7s 4
mph
1024mb 60f
Wed 07/27 11:00pm 0.7ft 7s 4
mph
1023.9mb 60f
10:00pm 0.7ft 15s 4 7 mph 1023.7mb 60f
9:00pm 0.7ft 7s 7
mph
1023.4mb 60f
8:00pm 0.7ft 14s 4
mph
1023.3mb 60f
7:00pm 0.7ft 14s 4
mph
1023.6mb 60f
6:00pm 0.7ft 14s 4 7 mph 1023.8mb 60f
5:00pm 0.7ft 15s 7 9 mph 1024.2mb 60f
4:00pm 0.7ft 14s 7
mph
1024mb 60f
3:00pm 1ft 3s 7
mph
1024.7mb 60f
2:00pm 1ft 3s 9
mph
1024.6mb 59f
1:00pm 1ft 3s 9
mph
1024.4mb 59f
12:00pm 1ft 3s 9 11 mph 1024.1mb 59f
11:00am 1ft 3s 9
mph
1023.8mb 58f
10:00am 1ft 3s 9 11 mph 1023.7mb 58f
9:00am 1ft 14s 9 11 mph 1023.5mb 58f
8:00am 1ft 15s 9 13 mph 1023.4mb 58f
7:00am 1ft 14s 9 13 mph 1023.1mb 57f
6:00am 1ft 14s 9
mph
1023.1mb 58f
5:00am 1ft 3s 9 11 mph 1023.1mb 58f
4:00am 1ft 3s 7 9 mph 1023.3mb 59f
3:00am 1ft 3s 7 9 mph 1023mb 58f
2:00am 1ft 4s 9 11 mph 1023.3mb 59f
1:00am 1ft 3s 9 11 mph 1023.4mb 59f
12:00am 1ft 4s 9 11 mph 1023.3mb 59f
Tue 07/26 11:00pm 1.3ft 4s 9 11 mph 1023.2mb 59f
10:00pm 1.3ft 4s 11 13 mph 1023.1mb 59f
9:00pm 1.3ft 3s 13 16 mph 1022.7mb 59f
8:00pm 1.3ft 3s 13 16 mph 1022.7mb 60f
7:00pm 1.6ft 3s 13 16 mph 1022.7mb 60f
6:00pm 1.3ft 3s 13 16 mph 1022.7mb 60f
5:00pm 1.3ft 3s 13 18 mph 1022.8mb 60f
4:00pm 1ft 2s 13 16 mph 1023.1mb 60f
3:00pm 1ft 14s 13 16 mph 1023.3mb 60f
2:00pm 1ft 14s 11
mph
1023.2mb 60f
1:00pm 1ft 14s 9
mph
1023mb 60f
12:00pm 0.7ft 14s 9
mph
1022.9mb 60f
11:00am 0.7ft 14s 9
mph
1022.5mb 59f
10:00am 0.7ft 14s 7 9 mph 1022.3mb 59f
9:00am 0.7ft 15s 7
mph
1022mb 59f
8:00am 0.7ft 14s 4 7 mph 1021.7mb 59f
7:00am 1ft 15s 4
mph
1021.4mb 59f
6:00am 0.7ft 15s 4 7 mph 1021.2mb 58f
5:00am 0.7ft 14s 4
mph
1021.1mb 58f
4:00am 0.7ft 15s 4
mph
1021.2mb 59f
3:00am 0.7ft 14s 7
mph
1021.2mb 59f
2:00am 0.7ft 14s 4 7 mph 1021.2mb 58f
1:00am 0.7ft 15s 4
mph
1021.2mb 58f
12:00am 0.7ft 15s 2 4 mph 1021.4mb 58f
Mon 07/25 11:00pm 0.7ft 15s 2 4 mph 1021.3mb 59f
10:00pm 0.7ft 15s 2
mph
1021.3mb 58f
9:00pm 1ft 15s 2
mph
1021.2mb 59f
8:00pm 1ft 15s 4
mph
1020.7mb 60f
7:00pm 1ft 15s 4
mph
1021mb 60f
6:00pm 1ft 16s 4 7 mph 1021.3mb 60f
5:00pm 1ft 15s 4
mph
1021.4mb 61f